createdAt,value
2022-11-20T00:01:55.914Z,12.82
2022-11-20T00:04:26.157Z,11.80
2022-11-20T00:06:56.418Z,13.10
2022-11-20T00:09:26.795Z,11.02
2022-11-20T00:11:57.044Z,9.43
2022-11-20T00:14:30.304Z,11.90
2022-11-20T00:17:00.441Z,11.60
2022-11-20T00:19:31.077Z,11.35
2022-11-20T00:22:01.247Z,11.30
2022-11-20T00:24:35.134Z,9.80
2022-11-20T00:27:07.043Z,10.60
2022-11-20T00:29:39.781Z,10.00
2022-11-20T00:32:10.009Z,10.80
2022-11-20T00:34:42.563Z,10.77
2022-11-20T00:37:12.716Z,11.82
2022-11-20T00:39:42.903Z,12.68
2022-11-20T00:42:13.064Z,12.80
2022-11-20T00:44:45.938Z,10.25
2022-11-20T00:47:16.298Z,10.82
2022-11-20T00:49:46.894Z,11.20
2022-11-20T00:52:17.037Z,11.90
2022-11-20T00:54:47.178Z,10.43
2022-11-20T00:57:17.640Z,11.27
2022-11-20T00:59:50.385Z,12.23
2022-11-20T01:02:20.690Z,10.90
2022-11-20T01:04:50.911Z,11.60
2022-11-20T01:07:21.265Z,10.60
2022-11-20T01:09:52.113Z,10.50
2022-11-20T01:12:22.196Z,11.07
2022-11-20T01:14:55.036Z,11.85
2022-11-20T01:17:25.230Z,10.38
2022-11-20T01:19:55.700Z,10.90
2022-11-20T01:22:25.835Z,11.60
2022-11-20T01:24:55.955Z,10.80
2022-11-20T01:27:26.129Z,12.20
2022-11-20T01:30:01.237Z,12.43
2022-11-20T01:32:31.816Z,10.75
2022-11-20T01:35:01.969Z,11.10
2022-11-20T01:37:32.231Z,11.82
2022-11-20T01:40:02.929Z,11.98
2022-11-20T01:42:45.537Z,11.32
2022-11-20T01:45:59.088Z,9.95
2022-11-20T01:48:33.676Z,10.15
2022-11-20T01:51:05.204Z,7.63
2022-11-20T01:53:38.604Z,10.48
2022-11-20T01:56:13.739Z,9.40
2022-11-20T01:58:48.784Z,10.10
2022-11-20T02:01:22.583Z,9.90
2022-11-20T02:03:54.307Z,10.05
2022-11-20T02:06:29.874Z,12.05
2022-11-20T02:09:00.323Z,10.02
2022-11-20T02:11:30.624Z,9.45
2022-11-20T02:13:59.156Z,10.00
2022-11-20T02:16:34.581Z,11.45
2022-11-20T02:19:10.226Z,8.50
2022-11-20T02:21:47.120Z,11.18
2022-11-20T02:24:22.303Z,11.10
2022-11-20T02:26:57.194Z,11.55
2022-11-20T02:29:30.775Z,9.18
2022-11-20T02:32:03.280Z,7.85
2022-11-20T02:34:33.756Z,10.20
2022-11-20T02:37:04.279Z,9.95
2022-11-20T02:39:37.133Z,10.70
2022-11-20T02:42:07.599Z,11.30
2022-11-20T02:44:37.811Z,9.82
2022-11-20T02:47:07.930Z,4.93
2022-11-20T02:49:38.467Z,10.77
2022-11-20T02:52:08.874Z,7.75
2022-11-20T02:54:41.667Z,9.80
2022-11-20T02:57:11.744Z,10.57
2022-11-20T02:59:42.060Z,11.68
2022-11-20T03:02:12.381Z,8.23
2022-11-20T03:04:42.565Z,10.10
2022-11-20T03:07:13.542Z,9.25
2022-11-20T03:09:46.296Z,9.57
2022-11-20T03:12:16.721Z,10.35
2022-11-20T03:14:52.641Z,9.27
2022-11-20T03:17:23.592Z,11.48
2022-11-20T03:19:53.775Z,11.25
2022-11-20T03:22:24.125Z,10.40
2022-11-20T03:24:56.913Z,9.43
2022-11-20T03:27:27.124Z,9.90
2022-11-20T03:29:57.479Z,9.05
2022-11-20T03:32:27.588Z,9.25
2022-11-20T03:34:57.868Z,9.50
2022-11-20T03:37:28.199Z,10.20
2022-11-20T03:40:01.284Z,11.07
2022-11-20T03:42:43.964Z,10.90
2022-11-20T03:45:15.223Z,10.50
2022-11-20T03:47:45.907Z,10.05
2022-11-20T03:50:17.513Z,9.68
2022-11-20T03:52:47.815Z,9.80
2022-11-20T03:55:20.725Z,8.40
2022-11-20T03:57:51.201Z,9.43
2022-11-20T04:00:21.661Z,10.13
2022-11-20T04:02:51.828Z,10.15
2022-11-20T04:05:21.874Z,10.60
2022-11-20T04:07:52.246Z,10.93
2022-11-20T04:10:25.240Z,10.55
2022-11-20T04:12:55.314Z,10.75
2022-11-20T04:15:25.608Z,9.48
2022-11-20T04:17:55.760Z,10.20
2022-11-20T04:20:26.019Z,7.78
2022-11-20T04:22:58.120Z,9.57
2022-11-20T04:25:30.807Z,8.85
2022-11-20T04:28:01.435Z,9.03
2022-11-20T04:30:31.868Z,8.65
2022-11-20T04:33:05.050Z,8.68
2022-11-20T04:35:38.031Z,9.23
2022-11-20T04:38:08.366Z,9.02
2022-11-20T04:40:41.509Z,8.93
2022-11-20T04:43:11.732Z,9.57
2022-11-20T04:45:41.787Z,9.07
2022-11-20T04:48:12.031Z,7.53
2022-11-20T04:50:44.132Z,8.82
2022-11-20T04:53:14.448Z,7.57
2022-11-20T04:55:47.370Z,7.15
2022-11-20T04:58:17.875Z,7.80
2022-11-20T05:00:48.104Z,8.18
2022-11-20T05:03:18.213Z,9.00
2022-11-20T05:05:48.308Z,7.28
2022-11-20T05:08:18.517Z,7.93
2022-11-20T05:10:51.351Z,8.27
2022-11-20T05:13:21.521Z,7.93
2022-11-20T05:15:51.699Z,8.88
2022-11-20T05:18:21.975Z,7.95
2022-11-20T05:20:59.145Z,7.43
2022-11-20T05:23:29.869Z,7.30
2022-11-20T05:26:02.967Z,7.88
2022-11-20T05:28:34.577Z,8.25
2022-11-20T05:31:11.966Z,8.73
2022-11-20T05:33:44.585Z,8.68
2022-11-20T05:36:15.764Z,7.63
2022-11-20T05:38:50.652Z,8.05
2022-11-20T05:41:24.585Z,7.43
2022-11-20T05:43:55.100Z,7.78
2022-11-20T05:46:29.318Z,7.85
2022-11-20T05:49:00.965Z,9.05
2022-11-20T05:51:32.180Z,7.38
2022-11-20T05:54:02.741Z,7.75
2022-11-20T05:56:35.454Z,8.52
2022-11-20T05:59:05.851Z,7.95
2022-11-20T06:01:37.035Z,9.40
2022-11-20T06:04:07.797Z,9.52
2022-11-20T06:06:38.014Z,9.10
2022-11-20T06:09:08.449Z,9.38
2022-11-20T06:11:41.316Z,9.82
2022-11-20T06:14:11.772Z,9.55
2022-11-20T06:16:41.915Z,8.63
2022-11-20T06:19:12.131Z,8.40
2022-11-20T06:21:42.384Z,9.90
2022-11-20T06:24:13.371Z,8.90
2022-11-20T06:26:51.955Z,10.38
2022-11-20T06:29:22.325Z,11.23
2022-11-20T06:31:52.720Z,13.27
2022-11-20T06:34:23.203Z,12.13
2022-11-20T06:36:53.604Z,12.18
2022-11-20T06:39:23.950Z,10.43
2022-11-20T06:41:59.505Z,10.05
2022-11-20T06:44:29.755Z,9.00
2022-11-20T06:46:59.972Z,9.70
2022-11-20T06:49:30.084Z,10.32
2022-11-20T06:52:00.423Z,11.88
2022-11-20T06:54:30.533Z,9.70
2022-11-20T06:57:03.408Z,11.77
2022-11-20T06:59:33.659Z,10.13
2022-11-20T07:02:04.815Z,11.73
2022-11-20T07:04:34.912Z,10.73
2022-11-20T07:07:05.136Z,10.48
2022-11-20T07:09:38.947Z,10.82
2022-11-20T07:12:12.337Z,10.23
2022-11-20T07:14:42.685Z,9.77
2022-11-20T07:17:12.672Z,11.27
2022-11-20T07:19:44.121Z,10.98
2022-11-20T07:22:14.443Z,10.27
2022-11-20T07:24:46.226Z,10.45
2022-11-20T07:27:19.129Z,10.40
2022-11-20T07:29:49.350Z,10.18
2022-11-20T07:32:19.539Z,9.32
2022-11-20T07:34:49.688Z,11.85
2022-11-20T07:37:20.085Z,9.18
2022-11-20T07:39:50.180Z,9.15
2022-11-20T07:42:22.998Z,9.65
2022-11-20T07:44:53.190Z,9.70
2022-11-20T07:47:23.401Z,9.65
2022-11-20T07:49:53.834Z,9.65
2022-11-20T07:52:24.204Z,8.95
2022-11-20T07:54:54.529Z,10.40
2022-11-20T07:57:28.611Z,10.23
2022-11-20T07:59:58.989Z,11.02
2022-11-20T08:02:29.208Z,9.65
2022-11-20T08:04:59.617Z,9.20
2022-11-20T08:07:29.861Z,9.25
2022-11-20T08:10:00.131Z,11.38
2022-11-20T08:12:45.259Z,9.70
2022-11-20T08:15:15.593Z,10.00
2022-11-20T08:18:01.958Z,9.30
2022-11-20T08:20:32.575Z,9.18
2022-11-20T08:23:03.848Z,10.23
2022-11-20T08:25:34.822Z,9.35
2022-11-20T08:28:19.899Z,11.27
2022-11-20T08:30:51.504Z,10.00
2022-11-20T08:33:22.303Z,9.93
2022-11-20T08:35:52.536Z,9.35
2022-11-20T08:38:22.851Z,8.20
2022-11-20T08:41:13.815Z,10.15
2022-11-20T08:43:46.569Z,8.15
2022-11-20T08:46:17.166Z,8.98
2022-11-20T08:48:47.945Z,9.10
2022-11-20T08:51:19.177Z,7.60
2022-11-20T08:53:49.759Z,7.30
2022-11-20T08:56:20.628Z,9.00
2022-11-20T09:01:44.686Z,11.05
2022-11-20T09:04:15.558Z,9.13
2022-11-20T09:06:45.911Z,8.88
2022-11-20T09:09:16.061Z,8.13
2022-11-20T09:11:46.224Z,9.40
2022-11-20T09:14:19.107Z,9.30
2022-11-20T09:16:51.812Z,10.75
2022-11-20T09:19:35.384Z,10.02
2022-11-20T09:22:06.520Z,10.43
2022-11-20T09:24:36.783Z,9.02
2022-11-20T09:27:08.286Z,9.20
2022-11-20T09:29:41.896Z,8.40
2022-11-20T09:32:12.068Z,7.88
2022-11-20T09:34:42.518Z,8.10
2022-11-20T09:37:12.660Z,8.23
2022-11-20T09:39:43.032Z,8.23
2022-11-20T09:42:39.799Z,8.77
2022-11-20T09:45:22.039Z,10.45
2022-11-20T09:48:07.321Z,8.73
2022-11-20T09:50:48.871Z,8.75
2022-11-20T09:53:29.046Z,9.05
2022-11-20T09:56:00.061Z,11.25
2022-11-20T09:58:36.176Z,9.27
2022-11-20T10:01:16.185Z,9.85
2022-11-20T10:03:57.473Z,9.57
2022-11-20T10:06:33.483Z,9.32
2022-11-20T10:09:16.112Z,9.80
2022-11-20T10:11:52.881Z,10.65
2022-11-20T10:14:34.803Z,10.85
2022-11-20T10:17:24.371Z,10.13
2022-11-20T10:20:12.819Z,9.48
2022-11-20T10:22:54.069Z,9.88
2022-11-20T10:25:28.456Z,9.05
2022-11-20T10:28:14.680Z,9.63
2022-11-20T10:30:48.081Z,8.35
2022-11-20T10:33:24.286Z,8.50
2022-11-20T10:35:58.363Z,8.07
2022-11-20T10:38:37.716Z,6.90
2022-11-20T10:41:23.344Z,6.32
2022-11-20T10:43:58.360Z,6.53
2022-11-20T10:46:32.498Z,9.57
2022-11-20T10:49:09.046Z,8.80
2022-11-20T10:51:43.948Z,7.95
2022-11-20T10:54:24.819Z,6.88
2022-11-20T10:56:56.311Z,6.50
2022-11-20T10:59:42.008Z,5.90
2022-11-20T11:02:24.271Z,7.05
2022-11-20T11:04:58.026Z,6.75
2022-11-20T11:07:33.560Z,6.50
2022-11-20T11:10:04.368Z,6.28
2022-11-20T11:12:35.109Z,6.72
2022-11-20T11:15:05.422Z,6.78
2022-11-20T11:17:37.724Z,7.28
2022-11-20T11:20:20.496Z,7.45
2022-11-20T11:22:53.859Z,7.05
2022-11-20T11:25:26.761Z,7.20
2022-11-20T11:27:59.250Z,7.90
2022-11-20T11:30:32.193Z,9.77
2022-11-20T11:33:10.535Z,9.82
2022-11-20T11:35:51.284Z,8.05
2022-11-20T11:38:27.333Z,8.63
2022-11-20T11:40:58.292Z,8.70
2022-11-20T11:43:42.932Z,7.63
2022-11-20T11:46:29.953Z,8.82
2022-11-20T11:49:02.514Z,8.75
2022-11-20T11:51:42.337Z,7.45
2022-11-20T11:54:21.660Z,7.78
2022-11-20T11:56:53.444Z,7.40
2022-11-20T11:59:31.182Z,7.68
2022-11-20T12:02:07.944Z,9.30
2022-11-20T12:04:48.589Z,9.00
2022-11-20T12:07:46.420Z,9.00
2022-11-20T12:10:24.004Z,8.02
2022-11-20T12:12:59.768Z,7.43
2022-11-20T12:15:34.139Z,7.25
2022-11-20T12:18:04.801Z,8.32
2022-11-20T12:20:45.927Z,7.13
2022-11-20T12:23:30.905Z,7.95
2022-11-20T12:26:05.142Z,7.82
2022-11-20T12:28:52.916Z,7.57
2022-11-20T12:31:41.659Z,6.53
2022-11-20T12:34:41.969Z,7.55
2022-11-20T12:37:24.183Z,6.97
2022-11-20T12:40:04.268Z,5.28
2022-11-20T12:43:12.159Z,6.28
2022-11-20T12:46:04.820Z,6.53
2022-11-20T12:48:59.761Z,4.93
2022-11-20T12:51:56.200Z,6.40
2022-11-20T12:54:50.090Z,5.85
2022-11-20T12:57:28.607Z,6.40
2022-11-20T13:00:15.738Z,5.75
2022-11-20T13:03:09.076Z,6.40
2022-11-20T13:05:51.036Z,7.13
2022-11-20T13:08:26.677Z,5.28
2022-11-20T13:11:08.132Z,6.53
2022-11-20T13:14:08.436Z,7.07
2022-11-20T13:16:45.484Z,8.48
2022-11-20T13:19:18.014Z,8.65
2022-11-20T13:21:50.580Z,7.22
2022-11-20T13:24:31.296Z,7.82
2022-11-20T13:27:09.788Z,7.93
2022-11-20T13:29:46.519Z,8.25
2022-11-20T13:32:20.832Z,8.60
2022-11-20T13:37:31.675Z,7.75
2022-11-20T13:40:26.348Z,8.13
2022-11-20T13:43:05.058Z,8.15
2022-11-20T13:45:37.776Z,7.45
2022-11-20T13:48:23.030Z,8.10
2022-11-20T13:51:03.749Z,6.88
2022-11-20T13:53:52.286Z,7.78
2022-11-20T13:56:31.330Z,6.90
2022-11-20T13:59:15.591Z,7.70
2022-11-20T14:01:50.011Z,9.35
2022-11-20T14:04:29.530Z,12.57
2022-11-20T14:07:00.387Z,8.27
2022-11-20T14:09:32.995Z,9.73
2022-11-20T14:12:03.570Z,8.82
2022-11-20T14:14:37.598Z,7.72
2022-11-20T14:17:23.083Z,7.00
2022-11-20T14:19:55.404Z,7.75
2022-11-20T14:22:28.610Z,8.40
2022-11-20T14:25:08.413Z,8.63
2022-11-20T14:27:41.501Z,7.80
2022-11-20T14:30:18.257Z,8.30
2022-11-20T14:32:52.440Z,8.80
2022-11-20T14:37:59.584Z,7.65
2022-11-20T14:40:33.238Z,7.78
2022-11-20T14:43:06.782Z,9.75
2022-11-20T14:45:37.932Z,9.10
2022-11-20T14:48:14.678Z,8.70
2022-11-20T14:50:45.016Z,9.00
2022-11-20T14:53:25.920Z,8.25
2022-11-20T14:56:01.439Z,10.43
2022-11-20T14:58:34.451Z,10.68
2022-11-20T15:01:07.330Z,12.07
2022-11-20T15:03:42.080Z,10.70
2022-11-20T15:06:16.202Z,10.45
2022-11-20T15:11:32.031Z,13.60
2022-11-20T15:14:06.737Z,12.85
2022-11-20T15:16:37.300Z,12.40
2022-11-20T15:19:20.868Z,11.95
2022-11-20T15:21:51.225Z,11.43
2022-11-20T15:24:22.363Z,13.20
2022-11-20T15:26:52.964Z,13.48
2022-11-20T15:29:25.092Z,12.38
2022-11-20T15:31:56.014Z,11.20
2022-11-20T15:34:31.234Z,10.43
2022-11-20T15:37:01.872Z,11.30
2022-11-20T15:39:32.074Z,10.30
2022-11-20T15:42:02.260Z,10.18
2022-11-20T15:44:32.443Z,10.90
2022-11-20T15:47:02.830Z,12.02
2022-11-20T15:49:35.881Z,14.07
2022-11-20T15:52:05.981Z,14.85
2022-11-20T15:54:36.192Z,16.48
2022-11-20T15:57:07.003Z,15.07
2022-11-20T15:59:40.839Z,17.50
2022-11-20T16:02:18.674Z,19.83
2022-11-20T16:04:51.904Z,21.20
2022-11-20T16:07:22.048Z,16.02
2022-11-20T16:09:52.112Z,16.40
2022-11-20T16:12:34.437Z,14.57
2022-11-20T16:15:16.861Z,15.43
2022-11-20T16:17:47.165Z,15.18
2022-11-20T16:20:19.791Z,15.43
2022-11-20T16:22:49.914Z,17.85
2022-11-20T16:25:22.993Z,19.35
2022-11-20T16:27:53.092Z,16.53
2022-11-20T16:30:23.492Z,18.38
2022-11-20T16:32:53.618Z,17.10
2022-11-20T16:35:26.448Z,16.83
2022-11-20T16:37:56.504Z,14.10
2022-11-20T16:40:27.125Z,12.80
2022-11-20T16:43:00.269Z,12.57
2022-11-20T16:45:33.869Z,11.33
2022-11-20T16:48:04.157Z,11.35
2022-11-20T16:50:36.873Z,13.43
2022-11-20T16:53:06.891Z,13.75
2022-11-20T16:55:36.949Z,13.60
2022-11-20T16:58:07.071Z,20.52
2022-11-20T17:00:39.581Z,17.83
2022-11-20T17:03:10.222Z,18.23
2022-11-20T17:05:42.987Z,25.38
2022-11-20T17:08:13.052Z,25.45
2022-11-20T17:10:43.215Z,24.08
2022-11-20T17:13:13.310Z,24.52
2022-11-20T17:15:43.376Z,24.40
2022-11-20T17:18:13.979Z,21.55
2022-11-20T17:20:54.870Z,18.67
2022-11-20T17:23:24.925Z,15.95
2022-11-20T17:25:55.011Z,17.48
2022-11-20T17:28:25.187Z,17.13
2022-11-20T17:30:55.268Z,19.30
2022-11-20T17:33:25.415Z,19.40
2022-11-20T17:35:58.155Z,17.50
2022-11-20T17:38:28.452Z,17.98
2022-11-20T17:41:05.475Z,17.30
2022-11-20T17:43:37.220Z,16.23
2022-11-20T17:46:08.709Z,15.68
2022-11-20T17:48:42.497Z,14.60
2022-11-20T17:51:17.388Z,13.60
2022-11-20T17:53:49.481Z,14.48
2022-11-20T17:56:32.186Z,14.50
2022-11-20T17:59:03.119Z,17.38
2022-11-20T18:01:33.262Z,16.40
2022-11-20T18:04:03.379Z,36.85
2022-11-20T18:06:36.264Z,23.65
2022-11-20T18:09:12.348Z,18.42
2022-11-20T18:11:45.575Z,15.57
2022-11-20T18:14:32.918Z,15.83
2022-11-20T18:17:05.223Z,14.05
2022-11-20T18:19:41.232Z,14.75
2022-11-20T18:22:23.024Z,14.55
2022-11-20T18:24:53.163Z,15.45
2022-11-20T18:27:24.505Z,14.68
2022-11-20T18:29:54.584Z,14.98
2022-11-20T18:32:25.530Z,11.82
2022-11-20T18:34:55.856Z,13.07
2022-11-20T18:37:28.637Z,15.40
2022-11-20T18:39:58.740Z,12.30
2022-11-20T18:42:41.363Z,14.60
2022-11-20T18:45:12.299Z,15.18
2022-11-20T18:47:42.498Z,14.88
2022-11-20T18:50:12.973Z,13.68
2022-11-20T18:52:48.176Z,14.18
2022-11-20T18:55:18.190Z,13.90
2022-11-20T18:57:48.645Z,15.23
2022-11-20T19:00:19.367Z,18.63
2022-11-20T19:02:49.742Z,23.42
2022-11-20T19:05:20.259Z,20.25
2022-11-20T19:07:53.178Z,23.30
2022-11-20T19:10:24.499Z,20.13
2022-11-20T19:12:54.543Z,20.75
2022-11-20T19:15:24.555Z,22.27
2022-11-20T19:17:57.040Z,25.00
2022-11-20T19:20:27.586Z,21.13
2022-11-20T19:23:00.360Z,23.02
2022-11-20T19:25:35.160Z,19.33
2022-11-20T19:28:08.172Z,19.13
2022-11-20T19:30:38.771Z,22.13
2022-11-20T19:33:08.918Z,23.15
2022-11-20T19:35:39.423Z,23.42
2022-11-20T19:38:12.269Z,22.83
2022-11-20T19:40:42.412Z,23.77
2022-11-20T19:43:12.535Z,21.88
2022-11-20T19:45:42.890Z,22.02
2022-11-20T19:48:13.327Z,23.55
2022-11-20T19:50:43.363Z,21.70
2022-11-20T19:53:16.248Z,26.00
2022-11-20T19:55:46.320Z,25.98
2022-11-20T19:58:16.489Z,24.50
2022-11-20T20:00:46.717Z,25.85
2022-11-20T20:03:16.949Z,24.75
2022-11-20T20:05:47.460Z,25.90
2022-11-20T20:08:23.241Z,24.15
2022-11-20T20:10:59.881Z,23.08
2022-11-20T20:13:30.151Z,19.27
2022-11-20T20:16:00.329Z,18.90
2022-11-20T20:18:30.471Z,18.17
2022-11-20T20:21:06.189Z,19.40
2022-11-20T20:23:38.965Z,18.75
2022-11-20T20:26:11.502Z,18.83
2022-11-20T20:28:42.853Z,18.00
2022-11-20T20:31:15.000Z,18.23
2022-11-20T20:33:45.939Z,18.08
2022-11-20T20:36:17.543Z,19.30
2022-11-20T20:38:50.940Z,18.98
2022-11-20T20:41:22.448Z,17.45
2022-11-20T20:44:05.044Z,16.83
2022-11-20T20:46:35.396Z,17.92
2022-11-20T20:49:07.981Z,18.35
2022-11-20T20:51:38.544Z,16.45
2022-11-20T20:54:11.202Z,20.60
2022-11-20T20:56:41.251Z,20.42
2022-11-20T20:59:12.084Z,24.13
2022-11-20T21:01:42.329Z,19.85
2022-11-20T21:04:12.486Z,18.95
2022-11-20T21:06:42.567Z,16.73
2022-11-20T21:09:15.298Z,19.50
2022-11-20T21:11:47.457Z,18.95
2022-11-20T21:14:17.570Z,21.05
2022-11-20T21:16:47.617Z,18.65
2022-11-20T21:19:19.135Z,15.32
2022-11-20T21:22:03.304Z,17.35
2022-11-20T21:24:37.778Z,16.75
2022-11-20T21:27:09.000Z,18.20
2022-11-20T21:29:39.175Z,17.48
2022-11-20T21:32:09.233Z,18.23
2022-11-20T21:34:39.324Z,17.65
2022-11-20T21:37:09.467Z,17.42
2022-11-20T21:39:50.896Z,16.88
2022-11-20T21:42:21.015Z,16.27
2022-11-20T21:44:51.071Z,16.33
2022-11-20T21:47:21.290Z,14.68
2022-11-20T21:49:51.356Z,15.57
2022-11-20T21:52:21.447Z,15.82
2022-11-20T21:54:54.099Z,16.15
2022-11-20T21:57:24.140Z,16.80
2022-11-20T21:59:54.211Z,14.65
2022-11-20T22:02:24.455Z,14.70
2022-11-20T22:05:04.469Z,14.00
2022-11-20T22:07:34.627Z,12.02
2022-11-20T22:10:08.028Z,13.63
2022-11-20T22:12:38.189Z,13.55
2022-11-20T22:15:07.028Z,14.18
2022-11-20T22:17:49.445Z,14.57
2022-11-20T22:20:19.628Z,13.13
2022-11-20T22:22:49.650Z,13.07
2022-11-20T22:25:22.394Z,13.90
2022-11-20T22:27:52.988Z,13.60
2022-11-20T22:30:23.312Z,13.02
2022-11-20T22:32:56.555Z,12.60
2022-11-20T22:35:26.492Z,12.97
2022-11-20T22:37:56.581Z,12.98
2022-11-20T22:40:29.252Z,13.10
2022-11-20T22:42:59.378Z,12.70
2022-11-20T22:45:29.466Z,12.18
2022-11-20T22:48:02.422Z,12.38
2022-11-20T22:50:32.509Z,10.73
2022-11-20T22:53:02.687Z,11.95
2022-11-20T22:55:36.009Z,11.18
2022-11-20T22:58:06.072Z,12.32
2022-11-20T23:00:36.326Z,11.30
2022-11-20T23:03:06.373Z,10.73
2022-11-20T23:05:36.568Z,12.73
2022-11-20T23:08:06.963Z,12.88
2022-11-20T23:10:39.653Z,14.25
2022-11-20T23:13:09.911Z,14.38
2022-11-20T23:15:39.998Z,13.68
2022-11-20T23:18:10.293Z,13.90
2022-11-20T23:20:40.348Z,14.80
2022-11-20T23:23:10.538Z,13.68
2022-11-20T23:25:43.493Z,12.77
2022-11-20T23:28:13.811Z,12.45
2022-11-20T23:30:43.822Z,13.25
2022-11-20T23:33:13.932Z,12.38
2022-11-20T23:35:44.025Z,13.20
2022-11-20T23:38:14.113Z,12.52
2022-11-20T23:40:52.103Z,12.35
2022-11-20T23:43:24.319Z,12.95
2022-11-20T23:45:56.077Z,13.82
2022-11-20T23:48:28.867Z,14.63
2022-11-20T23:50:59.274Z,14.13
2022-11-20T23:53:30.592Z,14.95
2022-11-20T23:56:05.262Z,14.77
2022-11-20T23:58:38.556Z,13.50
